createdAt,value
2023-03-26T00:02:23.439Z,30.58
2023-03-26T00:04:54.406Z,21.23
2023-03-26T00:07:22.705Z,18.92
2023-03-26T00:09:50.612Z,27.50
2023-03-26T00:12:18.730Z,23.88
2023-03-26T00:14:46.746Z,28.55
2023-03-26T00:17:14.592Z,33.63
2023-03-26T00:19:43.088Z,25.23
2023-03-26T00:22:14.278Z,28.40
2023-03-26T00:24:45.959Z,18.08
2023-03-26T00:27:14.610Z,18.08
2023-03-26T00:29:42.627Z,28.42
2023-03-26T00:32:10.799Z,25.23
2023-03-26T00:34:41.326Z,31.35
2023-03-26T00:37:12.552Z,21.92
2023-03-26T00:39:42.795Z,28.55
2023-03-26T00:42:11.249Z,31.90
2023-03-26T00:44:39.907Z,25.13
2023-03-26T00:47:07.837Z,25.88
2023-03-26T00:49:35.866Z,28.08
2023-03-26T00:52:04.037Z,23.25
2023-03-26T00:54:31.985Z,26.40
2023-03-26T00:57:01.551Z,24.15
2023-03-26T00:59:30.427Z,35.58
2023-03-26T01:01:58.505Z,31.55
2023-03-26T01:04:30.547Z,26.52
2023-03-26T01:07:02.742Z,33.08
2023-03-26T01:09:35.778Z,24.35
2023-03-26T01:12:07.885Z,20.38
2023-03-26T01:14:36.307Z,29.80
2023-03-26T01:17:07.118Z,24.75
2023-03-26T01:19:41.680Z,24.65
2023-03-26T01:22:12.201Z,24.50
2023-03-26T01:24:43.715Z,22.23
2023-03-26T01:27:20.731Z,27.77
2023-03-26T01:29:55.669Z,34.83
2023-03-26T01:32:38.741Z,24.83
2023-03-26T01:35:19.106Z,26.92
2023-03-26T01:37:59.523Z,29.15
2023-03-26T01:40:38.670Z,23.27
2023-03-26T01:43:13.394Z,16.85
2023-03-26T01:45:45.991Z,36.63
2023-03-26T01:48:14.737Z,28.92
2023-03-26T01:50:43.045Z,25.65
2023-03-26T01:53:14.629Z,23.63
2023-03-26T01:55:56.053Z,29.48
2023-03-26T01:58:35.881Z,20.98
2023-03-26T02:01:16.863Z,27.77
2023-03-26T02:03:52.276Z,30.83
2023-03-26T02:06:30.773Z,27.80
2023-03-26T02:09:03.024Z,20.33
2023-03-26T02:11:35.962Z,24.73
2023-03-26T02:14:06.181Z,23.92
2023-03-26T02:16:34.380Z,23.05
2023-03-26T02:19:02.523Z,26.95
2023-03-26T02:21:34.077Z,29.50
2023-03-26T02:24:04.227Z,26.05
2023-03-26T02:26:39.041Z,32.47
2023-03-26T02:29:13.344Z,27.15
2023-03-26T02:31:43.686Z,29.85
2023-03-26T02:34:11.654Z,29.70
2023-03-26T02:36:42.861Z,37.10
2023-03-26T02:39:11.985Z,14.88
2023-03-26T02:41:42.475Z,28.05
2023-03-26T02:44:13.281Z,32.65
2023-03-26T02:46:59.659Z,28.77
2023-03-26T02:49:50.897Z,22.52
2023-03-26T02:52:33.690Z,27.08
2023-03-26T02:55:01.629Z,32.65
2023-03-26T02:57:31.560Z,34.53
2023-03-26T03:00:17.181Z,21.45
2023-03-26T03:03:06.650Z,32.72
2023-03-26T03:05:56.616Z,17.50
2023-03-26T03:08:39.486Z,22.92
2023-03-26T03:14:03.917Z,30.38
2023-03-26T03:16:34.604Z,21.83
2023-03-26T03:19:11.984Z,25.27
2023-03-26T03:21:42.128Z,21.45
2023-03-26T03:24:11.611Z,28.65
2023-03-26T03:26:45.838Z,31.38
2023-03-26T03:29:24.819Z,23.77
2023-03-26T03:31:52.887Z,32.17
2023-03-26T03:34:38.702Z,33.70
2023-03-26T03:37:07.345Z,34.33
2023-03-26T03:39:51.496Z,26.88
2023-03-26T03:42:22.182Z,28.27
2023-03-26T03:44:54.537Z,28.85
2023-03-26T03:47:42.869Z,34.20
2023-03-26T03:50:12.309Z,28.20
2023-03-26T03:52:49.197Z,26.30
2023-03-26T03:55:18.228Z,20.40
2023-03-26T03:57:51.622Z,28.42
2023-03-26T04:00:24.383Z,20.38
2023-03-26T04:03:14.278Z,38.92
2023-03-26T04:05:43.780Z,23.30
2023-03-26T04:08:12.095Z,27.92
2023-03-26T04:10:47.137Z,30.60
2023-03-26T04:13:18.944Z,18.10
2023-03-26T04:16:02.937Z,26.17
2023-03-26T04:18:32.408Z,28.23
2023-03-26T04:21:07.604Z,30.40
2023-03-26T04:23:36.461Z,29.10
2023-03-26T04:26:17.444Z,22.52
2023-03-26T04:29:11.934Z,29.00
2023-03-26T04:31:43.282Z,27.23
2023-03-26T04:34:24.185Z,23.35
2023-03-26T04:37:16.854Z,28.73
2023-03-26T04:39:50.169Z,21.10
2023-03-26T04:42:41.738Z,27.95
2023-03-26T04:45:23.022Z,19.92
2023-03-26T04:47:59.209Z,25.02
2023-03-26T04:50:28.024Z,26.23
2023-03-26T04:52:58.524Z,27.55
2023-03-26T04:55:50.793Z,26.23
2023-03-26T04:58:33.112Z,19.35
2023-03-26T05:01:10.563Z,36.25
2023-03-26T05:03:45.845Z,25.77
2023-03-26T05:06:17.768Z,26.15
2023-03-26T05:08:46.294Z,21.92
2023-03-26T05:11:24.620Z,17.13
2023-03-26T05:13:52.972Z,25.45
2023-03-26T05:16:22.546Z,20.52
2023-03-26T05:18:58.505Z,27.02
2023-03-26T05:21:31.365Z,27.55
2023-03-26T05:23:59.437Z,28.25
2023-03-26T05:26:27.497Z,18.88
2023-03-26T05:28:55.721Z,19.42
2023-03-26T05:31:33.577Z,19.10
2023-03-26T05:34:04.976Z,30.60
2023-03-26T05:36:33.457Z,18.48
2023-03-26T05:39:25.816Z,27.83
2023-03-26T05:42:23.193Z,22.15
2023-03-26T05:45:03.952Z,22.42
2023-03-26T05:47:34.734Z,15.07
2023-03-26T05:50:06.132Z,23.85
2023-03-26T05:52:35.965Z,20.08
2023-03-26T05:55:22.330Z,20.55
2023-03-26T05:58:19.582Z,20.17
2023-03-26T06:01:08.932Z,23.45
2023-03-26T06:03:57.466Z,21.55
2023-03-26T06:06:31.184Z,24.02
2023-03-26T06:09:00.992Z,14.45
2023-03-26T06:11:32.098Z,18.23
2023-03-26T06:14:01.801Z,24.50
2023-03-26T06:16:30.320Z,26.02
2023-03-26T06:19:10.123Z,15.00
2023-03-26T06:21:52.570Z,27.05
2023-03-26T06:24:24.087Z,24.00
2023-03-26T06:27:14.888Z,26.42
2023-03-26T06:30:16.286Z,14.20
2023-03-26T06:33:01.525Z,17.02
2023-03-26T06:35:34.799Z,18.02
2023-03-26T06:38:05.399Z,24.42
2023-03-26T06:40:34.654Z,20.25
2023-03-26T06:43:23.196Z,19.15
2023-03-26T06:46:10.879Z,27.42
2023-03-26T06:48:59.614Z,24.80
2023-03-26T06:51:47.925Z,29.52
2023-03-26T06:54:36.048Z,27.30
2023-03-26T06:57:33.688Z,11.90
2023-03-26T07:00:39.729Z,16.73
2023-03-26T07:03:26.261Z,16.38
2023-03-26T07:06:20.241Z,21.23
2023-03-26T07:08:48.200Z,19.92
2023-03-26T07:11:41.067Z,20.40
2023-03-26T07:14:30.509Z,22.92
2023-03-26T07:17:21.555Z,27.48
2023-03-26T07:20:07.230Z,20.55
2023-03-26T07:22:36.459Z,15.77
2023-03-26T07:25:17.182Z,21.30
2023-03-26T07:27:54.336Z,14.73
2023-03-26T07:30:45.693Z,22.55
2023-03-26T07:33:50.164Z,16.52
2023-03-26T07:36:45.468Z,22.08
2023-03-26T07:39:44.001Z,20.95
2023-03-26T07:42:35.503Z,16.17
2023-03-26T07:45:29.389Z,16.42
2023-03-26T07:48:13.777Z,24.10
2023-03-26T07:50:58.573Z,17.42
2023-03-26T07:53:49.623Z,24.80
2023-03-26T07:56:42.138Z,17.65
2023-03-26T07:59:35.332Z,22.52
2023-03-26T08:02:43.310Z,15.40
2023-03-26T08:05:35.338Z,14.93
2023-03-26T08:08:39.720Z,19.58
2023-03-26T08:11:38.542Z,19.70
2023-03-26T08:14:21.830Z,17.15
2023-03-26T08:16:56.049Z,19.40
2023-03-26T08:19:40.908Z,21.30
2023-03-26T08:22:15.456Z,17.15
2023-03-26T08:24:53.889Z,16.10
2023-03-26T08:27:30.555Z,20.52
2023-03-26T08:30:07.520Z,16.63
2023-03-26T08:32:35.936Z,14.80
2023-03-26T08:35:09.344Z,18.20
2023-03-26T08:37:37.259Z,15.57
2023-03-26T08:40:06.689Z,22.00
2023-03-26T08:43:10.608Z,28.48
2023-03-26T08:46:23.646Z,20.95
2023-03-26T08:49:10.951Z,27.35
2023-03-26T08:52:28.848Z,18.10
2023-03-26T08:55:47.585Z,23.33
2023-03-26T08:59:07.427Z,13.50
2023-03-26T09:02:08.771Z,16.42
2023-03-26T09:05:21.661Z,21.67
2023-03-26T09:08:20.506Z,12.85
2023-03-26T09:10:59.356Z,19.25
2023-03-26T09:14:19.896Z,14.63
2023-03-26T09:17:29.439Z,18.60
2023-03-26T09:20:34.970Z,22.17
2023-03-26T09:23:48.476Z,16.05
2023-03-26T09:26:46.249Z,14.23
2023-03-26T09:29:44.525Z,11.45
2023-03-26T09:32:44.083Z,19.02
2023-03-26T09:35:37.837Z,19.67
2023-03-26T09:38:18.234Z,20.30
2023-03-26T09:40:59.846Z,12.48
2023-03-26T09:43:52.978Z,15.32
2023-03-26T09:46:36.788Z,19.43
2023-03-26T09:52:10.047Z,19.95
2023-03-26T09:55:08.483Z,18.70
2023-03-26T09:57:53.988Z,17.88
2023-03-26T10:00:36.574Z,14.27
2023-03-26T10:03:25.135Z,17.98
2023-03-26T10:06:13.599Z,23.83
2023-03-26T10:08:57.492Z,18.90
2023-03-26T10:14:15.031Z,15.65
2023-03-26T10:16:53.807Z,19.35
2023-03-26T10:19:37.811Z,17.30
2023-03-26T10:22:17.719Z,12.35
2023-03-26T10:25:01.413Z,13.10
2023-03-26T10:27:41.065Z,19.83
2023-03-26T10:30:29.614Z,23.13
2023-03-26T10:33:09.106Z,30.15
2023-03-26T10:35:48.352Z,17.83
2023-03-26T10:38:30.874Z,12.60
2023-03-26T10:41:05.920Z,17.88
2023-03-26T10:44:10.499Z,19.92
2023-03-26T10:47:15.573Z,18.80
2023-03-26T10:50:29.996Z,19.25
2023-03-26T10:53:03.257Z,25.30
2023-03-26T10:55:38.584Z,20.48
2023-03-26T10:58:16.157Z,25.17
2023-03-26T11:00:49.450Z,17.60
2023-03-26T11:03:35.779Z,12.98
2023-03-26T11:06:11.900Z,21.38
2023-03-26T11:08:49.595Z,19.13
2023-03-26T11:11:28.651Z,21.45
2023-03-26T11:14:06.789Z,23.85
2023-03-26T11:16:49.553Z,21.55
2023-03-26T11:19:26.267Z,23.00
2023-03-26T11:22:02.958Z,21.63
2023-03-26T11:25:01.623Z,21.08
2023-03-26T11:27:48.370Z,16.30
2023-03-26T11:30:28.786Z,26.23
2023-03-26T11:33:00.323Z,19.52
2023-03-26T11:35:39.452Z,15.98
2023-03-26T11:38:17.695Z,13.48
2023-03-26T11:40:51.108Z,16.88
2023-03-26T11:43:39.147Z,19.20
2023-03-26T11:46:11.280Z,24.27
2023-03-26T11:48:44.209Z,16.00
2023-03-26T11:51:19.323Z,17.67
2023-03-26T11:53:47.593Z,27.75
2023-03-26T11:56:24.746Z,10.02
2023-03-26T11:58:58.007Z,11.60
2023-03-26T12:01:30.468Z,13.68
2023-03-26T12:04:04.178Z,16.92
2023-03-26T12:06:34.525Z,13.77
2023-03-26T12:09:03.974Z,14.38
2023-03-26T12:11:35.591Z,15.77
2023-03-26T12:14:05.933Z,19.45
2023-03-26T12:16:36.391Z,18.75
2023-03-26T12:19:07.317Z,13.98
2023-03-26T12:21:46.901Z,13.77
2023-03-26T12:24:29.376Z,13.43
2023-03-26T12:27:03.072Z,17.50
2023-03-26T12:29:34.577Z,10.75
2023-03-26T12:32:08.665Z,19.20
2023-03-26T12:34:39.454Z,16.48
2023-03-26T12:37:36.703Z,13.70
2023-03-26T12:40:27.344Z,14.48
2023-03-26T12:44:49.161Z,11.35
2023-03-26T12:45:46.216Z,23.17
2023-03-26T12:48:35.558Z,17.58
2023-03-26T12:51:15.361Z,26.85
2023-03-26T12:53:59.979Z,16.88
2023-03-26T12:56:38.510Z,20.27
2023-03-26T12:59:22.883Z,15.25
2023-03-26T13:01:56.871Z,16.75
2023-03-26T13:04:40.427Z,15.45
2023-03-26T13:07:20.039Z,16.27
2023-03-26T13:10:27.124Z,21.70
2023-03-26T13:13:12.080Z,19.15
2023-03-26T13:18:25.360Z,12.30
2023-03-26T13:21:02.327Z,11.20
2023-03-26T13:23:43.363Z,9.35
2023-03-26T13:26:27.646Z,9.07
2023-03-26T13:29:04.815Z,19.08
2023-03-26T13:31:38.195Z,14.55
2023-03-26T13:34:16.074Z,14.10
2023-03-26T13:36:54.660Z,14.27
2023-03-26T13:39:31.818Z,13.60
2023-03-26T13:42:38.092Z,17.25
2023-03-26T13:45:17.462Z,13.07
2023-03-26T13:47:50.695Z,19.77
2023-03-26T13:50:26.830Z,11.57
2023-03-26T13:53:02.505Z,18.67
2023-03-26T13:55:36.103Z,20.60
2023-03-26T13:58:13.392Z,18.63
2023-03-26T14:00:54.578Z,11.65
2023-03-26T14:03:30.656Z,20.33
2023-03-26T14:06:05.148Z,17.23
2023-03-26T14:08:38.295Z,22.42
2023-03-26T14:11:11.041Z,15.23
2023-03-26T14:13:48.584Z,8.45
2023-03-26T14:16:21.634Z,11.45
2023-03-26T14:18:58.378Z,15.85
2023-03-26T14:21:58.006Z,19.10
2023-03-26T14:25:00.625Z,13.90
2023-03-26T14:27:44.363Z,16.70
2023-03-26T14:30:30.039Z,15.15
2023-03-26T14:33:13.254Z,16.95
2023-03-26T14:35:52.970Z,14.50
2023-03-26T14:38:41.100Z,12.70
2023-03-26T14:41:24.297Z,20.27
2023-03-26T14:44:13.935Z,13.18
2023-03-26T14:46:56.015Z,14.63
2023-03-26T14:49:43.646Z,19.30
2023-03-26T14:52:18.636Z,19.98
2023-03-26T14:54:51.730Z,18.15
2023-03-26T14:57:38.334Z,19.42
2023-03-26T15:00:38.224Z,17.08
2023-03-26T15:03:48.895Z,20.15
2023-03-26T15:06:50.150Z,11.45
2023-03-26T15:09:50.876Z,8.88
2023-03-26T15:12:35.973Z,14.40
2023-03-26T15:15:34.785Z,18.10
2023-03-26T15:18:46.037Z,17.90
2023-03-26T15:21:45.453Z,24.95
2023-03-26T15:24:38.194Z,16.77
2023-03-26T15:27:31.416Z,13.02
2023-03-26T15:30:38.650Z,20.13
2023-03-26T15:33:48.879Z,14.88
2023-03-26T15:37:01.618Z,22.45
2023-03-26T15:40:07.299Z,21.17
2023-03-26T15:42:46.734Z,15.75
2023-03-26T15:45:23.200Z,17.45
2023-03-26T15:48:05.460Z,17.35
2023-03-26T15:50:43.108Z,14.98
2023-03-26T15:53:23.485Z,18.42
2023-03-26T15:56:06.679Z,28.75
2023-03-26T15:58:46.057Z,22.02
2023-03-26T16:01:23.702Z,21.67
2023-03-26T16:03:59.600Z,18.35
2023-03-26T16:06:31.925Z,8.48
2023-03-26T16:09:22.010Z,20.42
2023-03-26T16:11:54.980Z,11.23
2023-03-26T16:14:24.991Z,22.38
2023-03-26T16:16:56.833Z,15.15
2023-03-26T16:19:41.004Z,24.08
2023-03-26T16:22:15.090Z,15.27
2023-03-26T16:25:01.995Z,18.15
2023-03-26T16:28:10.338Z,11.90
2023-03-26T16:30:39.672Z,22.33
2023-03-26T16:33:15.896Z,14.60
2023-03-26T16:36:18.415Z,11.55
2023-03-26T16:38:55.466Z,11.63
2023-03-26T16:41:28.272Z,16.05
2023-03-26T16:44:14.178Z,12.27
2023-03-26T16:46:50.718Z,17.40
2023-03-26T16:49:30.387Z,11.18
2023-03-26T16:52:07.543Z,17.48
2023-03-26T16:57:28.075Z,14.65
2023-03-26T17:00:24.695Z,15.40
2023-03-26T17:03:06.215Z,17.30
2023-03-26T17:05:38.035Z,13.68
2023-03-26T17:08:16.347Z,19.25
2023-03-26T17:10:57.878Z,23.77
2023-03-26T17:13:45.317Z,24.92
2023-03-26T17:16:20.651Z,16.80
2023-03-26T17:18:58.941Z,14.27
2023-03-26T17:21:45.851Z,21.80
2023-03-26T17:24:26.618Z,12.15
2023-03-26T17:27:27.888Z,16.92
2023-03-26T17:30:31.149Z,12.25
2023-03-26T17:33:07.515Z,15.27
2023-03-26T17:35:42.564Z,15.80
2023-03-26T17:38:50.311Z,12.15
2023-03-26T17:41:51.708Z,19.40
2023-03-26T17:44:38.399Z,17.80
2023-03-26T17:47:19.231Z,16.67
2023-03-26T17:49:51.039Z,13.18
2023-03-26T17:52:25.219Z,18.00
2023-03-26T17:54:56.715Z,15.32
2023-03-26T17:57:31.112Z,17.08
2023-03-26T18:00:00.906Z,12.90
2023-03-26T18:02:36.847Z,17.20
2023-03-26T18:05:09.105Z,12.98
2023-03-26T18:08:11.737Z,15.90
2023-03-26T18:10:59.965Z,30.23
2023-03-26T18:14:01.530Z,20.45
2023-03-26T18:16:36.004Z,17.45
2023-03-26T18:19:17.604Z,9.00
2023-03-26T18:21:49.123Z,14.80
2023-03-26T18:24:22.766Z,13.90
2023-03-26T18:29:24.213Z,11.18
2023-03-26T18:31:57.760Z,12.35
2023-03-26T18:34:30.924Z,15.80
2023-03-26T18:37:14.625Z,14.10
2023-03-26T18:42:22.430Z,13.48
2023-03-26T18:44:51.823Z,12.85
2023-03-26T18:47:21.066Z,11.73
2023-03-26T18:49:55.436Z,11.65
2023-03-26T18:52:23.952Z,14.43
2023-03-26T18:54:54.619Z,11.32
2023-03-26T18:57:24.688Z,7.65
2023-03-26T18:59:54.751Z,9.02
2023-03-26T19:02:23.980Z,14.95
2023-03-26T19:04:56.796Z,13.13
2023-03-26T19:07:27.347Z,17.38
2023-03-26T19:09:56.740Z,14.50
2023-03-26T19:12:29.600Z,9.52
2023-03-26T19:15:04.191Z,9.63
2023-03-26T19:17:37.666Z,14.35
2023-03-26T19:20:14.897Z,11.07
2023-03-26T19:22:44.653Z,15.23
2023-03-26T19:25:22.773Z,12.27
2023-03-26T19:27:52.508Z,11.48
2023-03-26T19:30:29.691Z,13.80
2023-03-26T19:33:12.701Z,13.75
2023-03-26T19:35:46.156Z,18.50
2023-03-26T19:38:23.244Z,10.18
2023-03-26T19:40:53.301Z,11.82
2023-03-26T19:43:21.452Z,14.30
2023-03-26T19:45:59.318Z,18.45
2023-03-26T19:48:45.250Z,8.57
2023-03-26T19:51:22.626Z,13.48
2023-03-26T19:53:55.055Z,9.40
2023-03-26T19:56:23.676Z,12.13
2023-03-26T19:58:52.604Z,18.67
2023-03-26T20:01:23.844Z,11.13
2023-03-26T20:03:55.291Z,10.20
2023-03-26T20:06:41.577Z,19.40
2023-03-26T20:09:12.301Z,12.70
2023-03-26T20:11:40.846Z,18.45
2023-03-26T20:14:14.582Z,14.63
2023-03-26T20:19:14.484Z,17.92
2023-03-26T20:21:44.994Z,16.90
2023-03-26T20:24:15.816Z,11.73
2023-03-26T20:26:44.385Z,16.98
2023-03-26T20:29:13.250Z,9.23
2023-03-26T20:31:42.443Z,18.42
2023-03-26T20:34:17.553Z,22.50
2023-03-26T20:36:48.150Z,13.27
2023-03-26T20:39:16.194Z,18.08
2023-03-26T20:41:48.031Z,9.27
2023-03-26T20:44:17.672Z,10.05
2023-03-26T20:46:48.182Z,11.63
2023-03-26T20:49:17.809Z,12.75
2023-03-26T20:51:47.728Z,13.23
2023-03-26T20:54:17.986Z,10.38
2023-03-26T20:56:47.767Z,12.32
2023-03-26T20:59:22.575Z,11.27
2023-03-26T21:01:51.792Z,13.13
2023-03-26T21:04:20.540Z,8.60
2023-03-26T21:06:50.859Z,11.85
2023-03-26T21:09:23.805Z,5.53
2023-03-26T21:12:01.823Z,14.82
2023-03-26T21:14:33.877Z,13.98
2023-03-26T21:17:02.803Z,12.43
2023-03-26T21:19:31.811Z,10.50
2023-03-26T21:22:14.688Z,11.98
2023-03-26T21:24:52.432Z,19.70
2023-03-26T21:27:28.126Z,16.40
2023-03-26T21:29:58.117Z,11.93
2023-03-26T21:32:27.005Z,11.85
2023-03-26T21:34:59.216Z,9.35
2023-03-26T21:37:29.500Z,10.32
2023-03-26T21:39:59.767Z,13.52
2023-03-26T21:42:29.302Z,20.58
2023-03-26T21:44:58.074Z,13.98
2023-03-26T21:47:27.085Z,7.57
2023-03-26T21:49:55.906Z,12.23
2023-03-26T21:52:24.585Z,15.30
2023-03-26T21:54:55.037Z,13.23
2023-03-26T21:57:40.551Z,12.32
2023-03-26T22:00:15.384Z,11.07
2023-03-26T22:02:57.288Z,12.05
2023-03-26T22:05:34.098Z,12.98
2023-03-26T22:08:03.613Z,6.25
2023-03-26T22:10:33.564Z,12.13
2023-03-26T22:13:01.570Z,16.70
2023-03-26T22:15:31.188Z,14.80
2023-03-26T22:18:03.240Z,10.43
2023-03-26T22:20:31.823Z,12.90
2023-03-26T22:23:00.952Z,11.90
2023-03-26T22:25:29.226Z,15.20
2023-03-26T22:27:58.667Z,10.77
2023-03-26T22:30:27.247Z,11.35
2023-03-26T22:32:55.798Z,13.40
2023-03-26T22:35:24.416Z,7.47
2023-03-26T22:37:52.640Z,17.02
2023-03-26T22:40:29.626Z,11.65
2023-03-26T22:42:59.235Z,18.75
2023-03-26T22:45:27.891Z,12.32
2023-03-26T22:48:03.413Z,16.02
2023-03-26T22:50:32.985Z,12.73
2023-03-26T22:53:00.978Z,6.75
2023-03-26T22:55:29.874Z,9.73
2023-03-26T22:57:59.586Z,10.77
2023-03-26T23:00:27.936Z,12.75
2023-03-26T23:03:00.074Z,13.02
2023-03-26T23:05:28.635Z,9.38
2023-03-26T23:07:57.084Z,13.15
2023-03-26T23:10:25.573Z,14.80
2023-03-26T23:12:54.045Z,15.93
2023-03-26T23:15:25.983Z,19.58
2023-03-26T23:17:54.551Z,8.45
2023-03-26T23:20:23.360Z,10.25
2023-03-26T23:22:51.400Z,7.47
2023-03-26T23:25:20.142Z,12.23
2023-03-26T23:27:48.504Z,14.90
2023-03-26T23:30:16.814Z,16.08
2023-03-26T23:32:47.180Z,18.05
2023-03-26T23:35:15.563Z,16.10
2023-03-26T23:37:43.616Z,10.60
2023-03-26T23:40:13.230Z,8.55
2023-03-26T23:42:41.730Z,9.20
2023-03-26T23:45:10.460Z,7.32
2023-03-26T23:47:42.579Z,12.43
2023-03-26T23:50:12.956Z,10.27
2023-03-26T23:52:41.386Z,9.02
2023-03-26T23:55:10.297Z,14.70
2023-03-26T23:57:38.268Z,12.00
